sensor_id;sensor_type;location;lat;lon;timestamp;P1;durP1;ratioP1;P2;durP2;ratioP2
48268;SDS011;34088;52.232;5.196;2023-06-14T00:01:25;8.38;;;3.97;;
48268;SDS011;34088;52.232;5.196;2023-06-14T00:03:52;9.18;;;3.85;;
48268;SDS011;34088;52.232;5.196;2023-06-14T00:06:19;8.43;;;3.70;;
48268;SDS011;34088;52.232;5.196;2023-06-14T00:08:45;7.75;;;3.92;;
48268;SDS011;34088;52.232;5.196;2023-06-14T00:11:11;9.82;;;3.80;;
48268;SDS011;34088;52.232;5.196;2023-06-14T00:13:37;7.68;;;3.75;;
48268;SDS011;34088;52.232;5.196;2023-06-14T00:16:03;11.15;;;3.85;;
48268;SDS011;34088;52.232;5.196;2023-06-14T00:35:13;7.25;;;3.63;;
48268;SDS011;34088;52.232;5.196;2023-06-14T00:37:39;9.45;;;3.90;;
48268;SDS011;34088;52.232;5.196;2023-06-14T00:40:05;9.63;;;3.85;;
48268;SDS011;34088;52.232;5.196;2023-06-14T00:42:32;13.13;;;4.10;;
48268;SDS011;34088;52.232;5.196;2023-06-14T00:44:58;8.48;;;3.97;;
48268;SDS011;34088;52.232;5.196;2023-06-14T00:47:24;10.30;;;4.00;;
48268;SDS011;34088;52.232;5.196;2023-06-14T00:49:50;8.15;;;4.15;;
48268;SDS011;34088;52.232;5.196;2023-06-14T00:52:16;5.15;;;3.92;;
48268;SDS011;34088;52.232;5.196;2023-06-14T00:54:43;8.80;;;3.90;;
48268;SDS011;34088;52.232;5.196;2023-06-14T00:57:09;8.80;;;4.05;;
48268;SDS011;34088;52.232;5.196;2023-06-14T00:59:42;9.65;;;4.15;;
48268;SDS011;34088;52.232;5.196;2023-06-14T01:02:08;8.50;;;3.85;;
48268;SDS011;34088;52.232;5.196;2023-06-14T01:04:34;9.20;;;3.67;;
48268;SDS011;34088;52.232;5.196;2023-06-14T01:07:09;9.23;;;3.55;;
48268;SDS011;34088;52.232;5.196;2023-06-14T01:12:15;10.60;;;4.10;;
48268;SDS011;34088;52.232;5.196;2023-06-14T01:14:42;9.32;;;3.70;;
48268;SDS011;34088;52.232;5.196;2023-06-14T01:17:09;8.85;;;4.10;;
48268;SDS011;34088;52.232;5.196;2023-06-14T01:19:42;10.85;;;3.90;;
48268;SDS011;34088;52.232;5.196;2023-06-14T01:22:08;7.15;;;3.80;;
48268;SDS011;34088;52.232;5.196;2023-06-14T01:24:34;8.38;;;3.67;;
48268;SDS011;34088;52.232;5.196;2023-06-14T01:27:00;8.13;;;3.53;;
48268;SDS011;34088;52.232;5.196;2023-06-14T01:29:27;6.60;;;3.47;;
48268;SDS011;34088;52.232;5.196;2023-06-14T01:31:58;9.75;;;3.90;;
48268;SDS011;34088;52.232;5.196;2023-06-14T01:34:24;7.55;;;3.80;;
48268;SDS011;34088;52.232;5.196;2023-06-14T01:36:50;10.60;;;4.03;;
48268;SDS011;34088;52.232;5.196;2023-06-14T01:39:17;10.10;;;3.88;;
48268;SDS011;34088;52.232;5.196;2023-06-14T01:41:43;9.18;;;3.35;;
48268;SDS011;34088;52.232;5.196;2023-06-14T01:44:11;11.20;;;4.22;;
48268;SDS011;34088;52.232;5.196;2023-06-14T01:46:38;12.30;;;3.30;;
48268;SDS011;34088;52.232;5.196;2023-06-14T01:49:04;6.72;;;3.63;;
48268;SDS011;34088;52.232;5.196;2023-06-14T01:51:30;9.18;;;3.78;;
48268;SDS011;34088;52.232;5.196;2023-06-14T01:53:56;7.97;;;3.90;;
48268;SDS011;34088;52.232;5.196;2023-06-14T01:56:22;7.38;;;3.72;;
48268;SDS011;34088;52.232;5.196;2023-06-14T01:58:48;7.85;;;3.95;;
48268;SDS011;34088;52.232;5.196;2023-06-14T02:01:15;11.88;;;3.55;;
48268;SDS011;34088;52.232;5.196;2023-06-14T02:03:41;10.85;;;3.40;;
48268;SDS011;34088;52.232;5.196;2023-06-14T02:06:07;9.75;;;3.58;;
48268;SDS011;34088;52.232;5.196;2023-06-14T02:08:33;9.38;;;3.60;;
48268;SDS011;34088;52.232;5.196;2023-06-14T02:10:59;9.93;;;3.80;;
48268;SDS011;34088;52.232;5.196;2023-06-14T02:13:25;10.18;;;3.65;;
48268;SDS011;34088;52.232;5.196;2023-06-14T02:15:51;8.50;;;3.67;;
48268;SDS011;34088;52.232;5.196;2023-06-14T02:18:19;10.68;;;3.65;;
48268;SDS011;34088;52.232;5.196;2023-06-14T02:20:46;10.18;;;3.50;;
48268;SDS011;34088;52.232;5.196;2023-06-14T02:23:12;10.88;;;3.83;;
48268;SDS011;34088;52.232;5.196;2023-06-14T02:25:38;10.90;;;3.85;;
48268;SDS011;34088;52.232;5.196;2023-06-14T02:28:05;6.88;;;3.42;;
48268;SDS011;34088;52.232;5.196;2023-06-14T02:30:31;8.18;;;3.67;;
48268;SDS011;34088;52.232;5.196;2023-06-14T02:32:57;8.48;;;3.42;;
48268;SDS011;34088;52.232;5.196;2023-06-14T02:35:24;7.93;;;3.55;;
48268;SDS011;34088;52.232;5.196;2023-06-14T02:37:51;8.68;;;3.80;;
48268;SDS011;34088;52.232;5.196;2023-06-14T02:40:18;9.27;;;3.90;;
48268;SDS011;34088;52.232;5.196;2023-06-14T02:42:44;11.63;;;3.83;;
48268;SDS011;34088;52.232;5.196;2023-06-14T02:45:10;8.27;;;3.42;;
48268;SDS011;34088;52.232;5.196;2023-06-14T02:47:36;15.55;;;4.10;;
48268;SDS011;34088;52.232;5.196;2023-06-14T02:50:02;7.20;;;3.70;;
48268;SDS011;34088;52.232;5.196;2023-06-14T02:52:28;7.43;;;3.55;;
48268;SDS011;34088;52.232;5.196;2023-06-14T02:54:54;9.60;;;3.45;;
48268;SDS011;34088;52.232;5.196;2023-06-14T02:57:21;9.35;;;3.88;;
48268;SDS011;34088;52.232;5.196;2023-06-14T02:59:48;8.02;;;3.90;;
48268;SDS011;34088;52.232;5.196;2023-06-14T03:02:14;8.88;;;3.78;;
48268;SDS011;34088;52.232;5.196;2023-06-14T03:04:40;6.15;;;3.60;;
48268;SDS011;34088;52.232;5.196;2023-06-14T03:07:08;6.85;;;3.55;;
48268;SDS011;34088;52.232;5.196;2023-06-14T03:09:37;9.70;;;3.40;;
48268;SDS011;34088;52.232;5.196;2023-06-14T03:12:03;5.75;;;3.33;;
48268;SDS011;34088;52.232;5.196;2023-06-14T03:14:30;8.50;;;3.50;;
48268;SDS011;34088;52.232;5.196;2023-06-14T03:16:56;8.63;;;3.80;;
48268;SDS011;34088;52.232;5.196;2023-06-14T03:19:23;17.10;;;3.58;;
48268;SDS011;34088;52.232;5.196;2023-06-14T03:21:50;7.72;;;4.00;;
48268;SDS011;34088;52.232;5.196;2023-06-14T03:24:16;8.98;;;3.90;;
48268;SDS011;34088;52.232;5.196;2023-06-14T03:26:42;9.68;;;3.40;;
48268;SDS011;34088;52.232;5.196;2023-06-14T03:29:09;10.10;;;3.65;;
48268;SDS011;34088;52.232;5.196;2023-06-14T03:31:34;7.45;;;3.53;;
48268;SDS011;34088;52.232;5.196;2023-06-14T03:34:01;7.28;;;3.70;;
48268;SDS011;34088;52.232;5.196;2023-06-14T03:36:27;10.20;;;4.03;;
48268;SDS011;34088;52.232;5.196;2023-06-14T03:38:53;9.00;;;3.95;;
48268;SDS011;34088;52.232;5.196;2023-06-14T03:41:20;7.57;;;4.18;;
48268;SDS011;34088;52.232;5.196;2023-06-14T03:43:46;12.32;;;3.63;;
48268;SDS011;34088;52.232;5.196;2023-06-14T03:46:12;9.27;;;3.70;;
48268;SDS011;34088;52.232;5.196;2023-06-14T03:48:38;8.85;;;3.53;;
48268;SDS011;34088;52.232;5.196;2023-06-14T03:51:04;7.15;;;3.50;;
48268;SDS011;34088;52.232;5.196;2023-06-14T03:53:30;6.65;;;3.25;;
48268;SDS011;34088;52.232;5.196;2023-06-14T03:55:56;7.95;;;3.78;;
48268;SDS011;34088;52.232;5.196;2023-06-14T03:58:23;10.80;;;3.50;;
48268;SDS011;34088;52.232;5.196;2023-06-14T04:00:49;6.40;;;3.40;;
48268;SDS011;34088;52.232;5.196;2023-06-14T04:03:14;10.00;;;3.65;;
48268;SDS011;34088;52.232;5.196;2023-06-14T04:05:41;7.75;;;3.28;;
48268;SDS011;34088;52.232;5.196;2023-06-14T04:08:07;9.18;;;3.60;;
48268;SDS011;34088;52.232;5.196;2023-06-14T04:10:34;10.10;;;3.33;;
48268;SDS011;34088;52.232;5.196;2023-06-14T04:13:00;7.20;;;3.53;;
48268;SDS011;34088;52.232;5.196;2023-06-14T04:15:26;8.98;;;3.65;;
48268;SDS011;34088;52.232;5.196;2023-06-14T04:17:53;9.07;;;3.90;;
48268;SDS011;34088;52.232;5.196;2023-06-14T04:20:22;8.27;;;4.00;;
48268;SDS011;34088;52.232;5.196;2023-06-14T04:22:51;11.35;;;3.50;;
48268;SDS011;34088;52.232;5.196;2023-06-14T04:25:17;9.35;;;3.70;;
48268;SDS011;34088;52.232;5.196;2023-06-14T04:27:43;7.25;;;3.90;;
48268;SDS011;34088;52.232;5.196;2023-06-14T04:30:09;12.88;;;3.80;;
48268;SDS011;34088;52.232;5.196;2023-06-14T04:32:35;8.57;;;3.97;;
48268;SDS011;34088;52.232;5.196;2023-06-14T04:35:05;9.23;;;3.67;;
48268;SDS011;34088;52.232;5.196;2023-06-14T04:37:32;6.20;;;3.38;;
48268;SDS011;34088;52.232;5.196;2023-06-14T04:39:58;9.13;;;3.80;;
48268;SDS011;34088;52.232;5.196;2023-06-14T04:42:24;10.27;;;3.80;;
48268;SDS011;34088;52.232;5.196;2023-06-14T04:44:55;11.38;;;3.80;;
48268;SDS011;34088;52.232;5.196;2023-06-14T04:47:21;10.52;;;3.88;;
48268;SDS011;34088;52.232;5.196;2023-06-14T04:49:49;7.95;;;3.92;;
48268;SDS011;34088;52.232;5.196;2023-06-14T04:52:17;10.80;;;3.75;;
48268;SDS011;34088;52.232;5.196;2023-06-14T04:54:46;9.95;;;3.90;;
48268;SDS011;34088;52.232;5.196;2023-06-14T04:57:12;7.38;;;3.60;;
48268;SDS011;34088;52.232;5.196;2023-06-14T04:59:42;5.90;;;3.75;;
48268;SDS011;34088;52.232;5.196;2023-06-14T05:02:09;10.98;;;3.50;;
48268;SDS011;34088;52.232;5.196;2023-06-14T05:04:35;8.07;;;3.95;;
48268;SDS011;34088;52.232;5.196;2023-06-14T05:07:04;7.93;;;4.00;;
48268;SDS011;34088;52.232;5.196;2023-06-14T05:09:31;13.20;;;4.35;;
48268;SDS011;34088;52.232;5.196;2023-06-14T05:14:25;5.20;;;3.22;;
48268;SDS011;34088;52.232;5.196;2023-06-14T05:16:51;7.70;;;3.80;;
48268;SDS011;34088;52.232;5.196;2023-06-14T05:19:18;6.43;;;3.55;;
48268;SDS011;34088;52.232;5.196;2023-06-14T05:21:45;12.48;;;3.65;;
48268;SDS011;34088;52.232;5.196;2023-06-14T05:24:12;8.88;;;4.07;;
48268;SDS011;34088;52.232;5.196;2023-06-14T05:26:38;6.90;;;3.15;;
48268;SDS011;34088;52.232;5.196;2023-06-14T05:29:04;12.43;;;3.80;;
48268;SDS011;34088;52.232;5.196;2023-06-14T05:31:31;9.38;;;3.90;;
48268;SDS011;34088;52.232;5.196;2023-06-14T05:33:57;10.45;;;3.92;;
48268;SDS011;34088;52.232;5.196;2023-06-14T05:36:23;8.05;;;3.92;;
48268;SDS011;34088;52.232;5.196;2023-06-14T05:38:49;8.93;;;4.00;;
48268;SDS011;34088;52.232;5.196;2023-06-14T05:41:16;5.78;;;3.50;;
48268;SDS011;34088;52.232;5.196;2023-06-14T05:43:42;6.07;;;3.63;;
48268;SDS011;34088;52.232;5.196;2023-06-14T05:46:08;9.40;;;4.07;;
48268;SDS011;34088;52.232;5.196;2023-06-14T05:48:34;7.63;;;3.80;;
48268;SDS011;34088;52.232;5.196;2023-06-14T05:51:00;9.60;;;3.78;;
48268;SDS011;34088;52.232;5.196;2023-06-14T05:53:26;7.40;;;3.80;;
48268;SDS011;34088;52.232;5.196;2023-06-14T05:55:52;12.55;;;4.45;;
48268;SDS011;34088;52.232;5.196;2023-06-14T05:58:19;7.28;;;3.80;;
48268;SDS011;34088;52.232;5.196;2023-06-14T06:00:45;6.25;;;3.70;;
48268;SDS011;34088;52.232;5.196;2023-06-14T06:03:11;10.80;;;4.18;;
48268;SDS011;34088;52.232;5.196;2023-06-14T06:05:38;7.28;;;3.92;;
48268;SDS011;34088;52.232;5.196;2023-06-14T06:08:04;9.68;;;3.92;;
48268;SDS011;34088;52.232;5.196;2023-06-14T06:10:30;8.90;;;3.83;;
48268;SDS011;34088;52.232;5.196;2023-06-14T06:12:56;8.77;;;3.85;;
48268;SDS011;34088;52.232;5.196;2023-06-14T06:15:22;8.25;;;4.07;;
48268;SDS011;34088;52.232;5.196;2023-06-14T06:17:48;8.95;;;3.80;;
48268;SDS011;34088;52.232;5.196;2023-06-14T06:20:14;8.23;;;4.18;;
48268;SDS011;34088;52.232;5.196;2023-06-14T06:22:39;7.60;;;3.85;;
48268;SDS011;34088;52.232;5.196;2023-06-14T06:25:06;8.50;;;3.60;;
48268;SDS011;34088;52.232;5.196;2023-06-14T06:27:32;15.10;;;5.30;;
48268;SDS011;34088;52.232;5.196;2023-06-14T06:29:58;9.38;;;3.92;;
48268;SDS011;34088;52.232;5.196;2023-06-14T06:32:24;9.35;;;3.90;;
48268;SDS011;34088;52.232;5.196;2023-06-14T06:34:50;13.02;;;4.22;;
48268;SDS011;34088;52.232;5.196;2023-06-14T06:37:16;6.63;;;3.72;;
48268;SDS011;34088;52.232;5.196;2023-06-14T06:39:42;9.88;;;4.30;;
48268;SDS011;34088;52.232;5.196;2023-06-14T06:42:08;8.18;;;4.40;;
48268;SDS011;34088;52.232;5.196;2023-06-14T06:44:35;13.75;;;3.85;;
48268;SDS011;34088;52.232;5.196;2023-06-14T06:47:01;9.63;;;4.47;;
48268;SDS011;34088;52.232;5.196;2023-06-14T06:49:27;8.90;;;3.95;;
48268;SDS011;34088;52.232;5.196;2023-06-14T06:52:04;9.85;;;3.92;;
48268;SDS011;34088;52.232;5.196;2023-06-14T06:54:30;10.85;;;3.92;;
48268;SDS011;34088;52.232;5.196;2023-06-14T06:56:56;13.50;;;4.13;;
48268;SDS011;34088;52.232;5.196;2023-06-14T06:59:22;10.82;;;3.67;;
48268;SDS011;34088;52.232;5.196;2023-06-14T07:01:48;9.43;;;3.83;;
48268;SDS011;34088;52.232;5.196;2023-06-14T07:04:15;8.73;;;3.75;;
48268;SDS011;34088;52.232;5.196;2023-06-14T07:06:41;8.93;;;3.90;;
48268;SDS011;34088;52.232;5.196;2023-06-14T07:09:07;10.80;;;3.75;;
48268;SDS011;34088;52.232;5.196;2023-06-14T07:11:38;8.98;;;3.78;;
48268;SDS011;34088;52.232;5.196;2023-06-14T07:14:04;12.18;;;4.25;;
48268;SDS011;34088;52.232;5.196;2023-06-14T07:16:30;6.05;;;3.28;;
48268;SDS011;34088;52.232;5.196;2023-06-14T07:18:56;11.68;;;4.32;;
48268;SDS011;34088;52.232;5.196;2023-06-14T07:21:22;10.63;;;3.95;;
48268;SDS011;34088;52.232;5.196;2023-06-14T07:23:50;11.82;;;4.07;;
48268;SDS011;34088;52.232;5.196;2023-06-14T07:26:16;7.82;;;3.95;;
48268;SDS011;34088;52.232;5.196;2023-06-14T07:28:42;11.40;;;4.18;;
48268;SDS011;34088;52.232;5.196;2023-06-14T07:31:09;11.63;;;3.42;;
48268;SDS011;34088;52.232;5.196;2023-06-14T07:33:36;6.25;;;3.72;;
48268;SDS011;34088;52.232;5.196;2023-06-14T07:36:02;6.63;;;3.70;;
48268;SDS011;34088;52.232;5.196;2023-06-14T07:38:28;7.90;;;3.80;;
48268;SDS011;34088;52.232;5.196;2023-06-14T07:40:54;7.90;;;4.10;;
48268;SDS011;34088;52.232;5.196;2023-06-14T07:43:20;8.95;;;3.67;;
48268;SDS011;34088;52.232;5.196;2023-06-14T07:45:46;6.45;;;3.55;;
48268;SDS011;34088;52.232;5.196;2023-06-14T07:48:11;6.20;;;3.47;;
48268;SDS011;34088;52.232;5.196;2023-06-14T07:50:37;8.93;;;2.90;;
48268;SDS011;34088;52.232;5.196;2023-06-14T07:53:03;8.63;;;3.60;;
48268;SDS011;34088;52.232;5.196;2023-06-14T07:55:29;7.13;;;3.28;;
48268;SDS011;34088;52.232;5.196;2023-06-14T07:57:57;7.88;;;3.20;;
48268;SDS011;34088;52.232;5.196;2023-06-14T08:00:23;8.05;;;3.08;;
48268;SDS011;34088;52.232;5.196;2023-06-14T08:02:49;6.70;;;3.25;;
48268;SDS011;34088;52.232;5.196;2023-06-14T08:05:17;5.57;;;3.05;;
48268;SDS011;34088;52.232;5.196;2023-06-14T08:07:43;7.85;;;3.33;;
48268;SDS011;34088;52.232;5.196;2023-06-14T08:10:09;4.63;;;2.95;;
48268;SDS011;34088;52.232;5.196;2023-06-14T08:12:35;6.18;;;2.80;;
48268;SDS011;34088;52.232;5.196;2023-06-14T08:15:02;8.63;;;3.03;;
48268;SDS011;34088;52.232;5.196;2023-06-14T08:17:28;5.50;;;2.90;;
48268;SDS011;34088;52.232;5.196;2023-06-14T08:19:54;7.22;;;2.92;;
48268;SDS011;34088;52.232;5.196;2023-06-14T08:22:22;5.45;;;2.70;;
48268;SDS011;34088;52.232;5.196;2023-06-14T08:24:49;8.57;;;2.58;;
48268;SDS011;34088;52.232;5.196;2023-06-14T08:27:16;6.72;;;2.88;;
48268;SDS011;34088;52.232;5.196;2023-06-14T08:29:42;5.35;;;2.33;;
48268;SDS011;34088;52.232;5.196;2023-06-14T08:32:08;4.57;;;2.70;;
48268;SDS011;34088;52.232;5.196;2023-06-14T08:34:35;4.18;;;2.55;;
48268;SDS011;34088;52.232;5.196;2023-06-14T08:37:01;5.47;;;2.40;;
48268;SDS011;34088;52.232;5.196;2023-06-14T08:39:27;3.63;;;2.40;;
48268;SDS011;34088;52.232;5.196;2023-06-14T08:41:53;5.38;;;2.53;;
48268;SDS011;34088;52.232;5.196;2023-06-14T08:44:20;5.32;;;2.42;;
48268;SDS011;34088;52.232;5.196;2023-06-14T08:46:47;4.43;;;2.30;;
48268;SDS011;34088;52.232;5.196;2023-06-14T08:49:13;5.53;;;2.80;;
48268;SDS011;34088;52.232;5.196;2023-06-14T08:51:41;8.85;;;2.40;;
48268;SDS011;34088;52.232;5.196;2023-06-14T08:54:08;3.80;;;2.30;;
48268;SDS011;34088;52.232;5.196;2023-06-14T08:56:35;6.90;;;2.75;;
48268;SDS011;34088;52.232;5.196;2023-06-14T08:59:02;7.20;;;2.28;;
48268;SDS011;34088;52.232;5.196;2023-06-14T09:01:32;13.68;;;2.80;;
48268;SDS011;34088;52.232;5.196;2023-06-14T09:03:59;5.60;;;2.20;;
48268;SDS011;34088;52.232;5.196;2023-06-14T09:06:25;4.03;;;2.25;;
48268;SDS011;34088;52.232;5.196;2023-06-14T09:08:54;3.67;;;2.13;;
48268;SDS011;34088;52.232;5.196;2023-06-14T09:11:22;4.97;;;2.33;;
48268;SDS011;34088;52.232;5.196;2023-06-14T09:13:48;5.10;;;2.28;;
48268;SDS011;34088;52.232;5.196;2023-06-14T09:16:14;6.43;;;2.30;;
48268;SDS011;34088;52.232;5.196;2023-06-14T09:18:41;4.75;;;2.28;;
48268;SDS011;34088;52.232;5.196;2023-06-14T09:21:13;7.28;;;2.10;;
48268;SDS011;34088;52.232;5.196;2023-06-14T09:23:43;6.43;;;2.42;;
48268;SDS011;34088;52.232;5.196;2023-06-14T09:26:13;5.53;;;2.33;;
48268;SDS011;34088;52.232;5.196;2023-06-14T09:28:46;7.35;;;2.20;;
48268;SDS011;34088;52.232;5.196;2023-06-14T09:31:12;5.93;;;2.55;;
48268;SDS011;34088;52.232;5.196;2023-06-14T09:33:41;6.30;;;2.08;;
48268;SDS011;34088;52.232;5.196;2023-06-14T09:36:12;2.85;;;2.10;;
48268;SDS011;34088;52.232;5.196;2023-06-14T09:38:41;3.15;;;2.00;;
48268;SDS011;34088;52.232;5.196;2023-06-14T09:41:06;5.35;;;2.30;;
48268;SDS011;34088;52.232;5.196;2023-06-14T09:43:33;6.28;;;2.10;;
48268;SDS011;34088;52.232;5.196;2023-06-14T09:46:02;7.25;;;1.98;;
48268;SDS011;34088;52.232;5.196;2023-06-14T09:48:29;4.50;;;2.20;;
48268;SDS011;34088;52.232;5.196;2023-06-14T09:50:55;5.32;;;2.38;;
48268;SDS011;34088;52.232;5.196;2023-06-14T09:53:23;5.22;;;2.22;;
48268;SDS011;34088;52.232;5.196;2023-06-14T09:55:49;4.72;;;2.10;;
48268;SDS011;34088;52.232;5.196;2023-06-14T09:58:17;2.88;;;2.00;;
48268;SDS011;34088;52.232;5.196;2023-06-14T10:00:46;3.88;;;2.20;;
48268;SDS011;34088;52.232;5.196;2023-06-14T10:03:14;6.63;;;2.17;;
48268;SDS011;34088;52.232;5.196;2023-06-14T10:05:43;5.18;;;2.17;;
48268;SDS011;34088;52.232;5.196;2023-06-14T10:08:10;5.00;;;2.10;;
48268;SDS011;34088;52.232;5.196;2023-06-14T10:10:38;4.78;;;2.30;;
48268;SDS011;34088;52.232;5.196;2023-06-14T10:13:07;2.80;;;2.10;;
48268;SDS011;34088;52.232;5.196;2023-06-14T10:18:14;3.00;;;1.95;;
48268;SDS011;34088;52.232;5.196;2023-06-14T10:21:01;3.55;;;1.83;;
48268;SDS011;34088;52.232;5.196;2023-06-14T10:23:32;4.75;;;2.10;;
48268;SDS011;34088;52.232;5.196;2023-06-14T10:26:00;4.35;;;2.10;;
48268;SDS011;34088;52.232;5.196;2023-06-14T10:28:26;5.43;;;2.13;;
48268;SDS011;34088;52.232;5.196;2023-06-14T10:31:11;4.32;;;1.90;;
48268;SDS011;34088;52.232;5.196;2023-06-14T10:38:58;7.43;;;2.28;;
48268;SDS011;34088;52.232;5.196;2023-06-14T10:41:25;3.50;;;2.05;;
48268;SDS011;34088;52.232;5.196;2023-06-14T10:43:53;6.95;;;2.08;;
48268;SDS011;34088;52.232;5.196;2023-06-14T10:46:36;4.22;;;2.00;;
48268;SDS011;34088;52.232;5.196;2023-06-14T10:49:02;4.57;;;1.95;;
48268;SDS011;34088;52.232;5.196;2023-06-14T10:51:29;3.80;;;2.08;;
48268;SDS011;34088;52.232;5.196;2023-06-14T10:53:56;4.00;;;1.85;;
48268;SDS011;34088;52.232;5.196;2023-06-14T10:56:31;4.05;;;1.85;;
48268;SDS011;34088;52.232;5.196;2023-06-14T10:58:58;4.63;;;2.00;;
48268;SDS011;34088;52.232;5.196;2023-06-14T11:01:37;3.28;;;2.00;;
48268;SDS011;34088;52.232;5.196;2023-06-14T11:04:06;5.97;;;2.10;;
48268;SDS011;34088;52.232;5.196;2023-06-14T11:06:39;4.63;;;2.10;;
48268;SDS011;34088;52.232;5.196;2023-06-14T11:11:39;7.55;;;1.95;;
48268;SDS011;34088;52.232;5.196;2023-06-14T11:14:07;5.07;;;2.00;;
48268;SDS011;34088;52.232;5.196;2023-06-14T11:16:33;3.88;;;1.70;;
48268;SDS011;34088;52.232;5.196;2023-06-14T11:19:00;3.38;;;1.80;;
48268;SDS011;34088;52.232;5.196;2023-06-14T11:21:28;4.35;;;2.22;;
48268;SDS011;34088;52.232;5.196;2023-06-14T11:23:56;3.00;;;2.10;;
48268;SDS011;34088;52.232;5.196;2023-06-14T11:26:29;7.88;;;1.90;;
48268;SDS011;34088;52.232;5.196;2023-06-14T11:28:59;5.50;;;1.95;;
48268;SDS011;34088;52.232;5.196;2023-06-14T11:31:26;6.32;;;2.00;;
48268;SDS011;34088;52.232;5.196;2023-06-14T11:33:53;6.93;;;1.88;;
48268;SDS011;34088;52.232;5.196;2023-06-14T11:36:19;4.72;;;2.10;;
48268;SDS011;34088;52.232;5.196;2023-06-14T11:38:45;2.92;;;1.90;;
48268;SDS011;34088;52.232;5.196;2023-06-14T11:41:11;4.55;;;2.17;;
48268;SDS011;34088;52.232;5.196;2023-06-14T11:43:37;5.85;;;2.00;;
48268;SDS011;34088;52.232;5.196;2023-06-14T11:46:03;7.28;;;2.00;;
48268;SDS011;34088;52.232;5.196;2023-06-14T11:48:37;4.78;;;1.95;;
48268;SDS011;34088;52.232;5.196;2023-06-14T11:51:03;5.15;;;2.10;;
48268;SDS011;34088;52.232;5.196;2023-06-14T11:53:30;4.85;;;2.33;;
48268;SDS011;34088;52.232;5.196;2023-06-14T11:55:56;4.72;;;1.80;;
48268;SDS011;34088;52.232;5.196;2023-06-14T11:58:22;7.78;;;2.35;;
48268;SDS011;34088;52.232;5.196;2023-06-14T12:00:48;2.03;;;1.60;;
48268;SDS011;34088;52.232;5.196;2023-06-14T12:03:15;2.88;;;2.15;;
48268;SDS011;34088;52.232;5.196;2023-06-14T12:05:41;7.60;;;2.20;;
48268;SDS011;34088;52.232;5.196;2023-06-14T12:08:08;2.20;;;2.00;;
48268;SDS011;34088;52.232;5.196;2023-06-14T12:10:41;4.43;;;2.00;;
48268;SDS011;34088;52.232;5.196;2023-06-14T12:13:08;7.03;;;2.10;;
48268;SDS011;34088;52.232;5.196;2023-06-14T12:15:34;5.78;;;1.88;;
48268;SDS011;34088;52.232;5.196;2023-06-14T12:18:00;4.97;;;2.05;;
48268;SDS011;34088;52.232;5.196;2023-06-14T12:20:30;3.28;;;1.90;;
48268;SDS011;34088;52.232;5.196;2023-06-14T12:22:57;6.10;;;2.25;;
48268;SDS011;34088;52.232;5.196;2023-06-14T12:25:41;5.65;;;1.80;;
48268;SDS011;34088;52.232;5.196;2023-06-14T12:28:09;6.72;;;2.22;;
48268;SDS011;34088;52.232;5.196;2023-06-14T12:30:36;4.85;;;1.70;;
48268;SDS011;34088;52.232;5.196;2023-06-14T12:33:05;3.50;;;1.73;;
48268;SDS011;34088;52.232;5.196;2023-06-14T12:35:32;4.18;;;1.90;;
48268;SDS011;34088;52.232;5.196;2023-06-14T12:37:58;8.23;;;2.35;;
48268;SDS011;34088;52.232;5.196;2023-06-14T12:40:24;4.47;;;1.70;;
48268;SDS011;34088;52.232;5.196;2023-06-14T12:42:51;6.43;;;2.20;;
48268;SDS011;34088;52.232;5.196;2023-06-14T12:45:17;6.00;;;1.80;;
48268;SDS011;34088;52.232;5.196;2023-06-14T12:47:43;6.40;;;2.00;;
48268;SDS011;34088;52.232;5.196;2023-06-14T12:50:09;4.68;;;2.63;;
48268;SDS011;34088;52.232;5.196;2023-06-14T12:52:35;4.22;;;2.00;;
48268;SDS011;34088;52.232;5.196;2023-06-14T12:55:04;5.07;;;1.95;;
48268;SDS011;34088;52.232;5.196;2023-06-14T12:57:31;3.55;;;1.65;;
48268;SDS011;34088;52.232;5.196;2023-06-14T12:59:59;4.07;;;1.70;;
48268;SDS011;34088;52.232;5.196;2023-06-14T13:02:25;3.13;;;1.95;;
48268;SDS011;34088;52.232;5.196;2023-06-14T13:04:51;4.95;;;2.20;;
48268;SDS011;34088;52.232;5.196;2023-06-14T13:07:17;5.28;;;2.10;;
48268;SDS011;34088;52.232;5.196;2023-06-14T13:09:43;4.45;;;2.25;;
48268;SDS011;34088;52.232;5.196;2023-06-14T13:12:10;6.10;;;1.90;;
48268;SDS011;34088;52.232;5.196;2023-06-14T13:14:37;5.13;;;2.13;;
48268;SDS011;34088;52.232;5.196;2023-06-14T13:17:03;3.20;;;1.95;;
48268;SDS011;34088;52.232;5.196;2023-06-14T13:19:29;5.07;;;2.00;;
48268;SDS011;34088;52.232;5.196;2023-06-14T13:21:55;6.25;;;2.20;;
48268;SDS011;34088;52.232;5.196;2023-06-14T13:24:21;2.55;;;1.77;;
48268;SDS011;34088;52.232;5.196;2023-06-14T13:26:47;10.10;;;2.03;;
48268;SDS011;34088;52.232;5.196;2023-06-14T13:29:13;7.30;;;2.10;;
48268;SDS011;34088;52.232;5.196;2023-06-14T13:31:39;5.25;;;1.80;;
48268;SDS011;34088;52.232;5.196;2023-06-14T13:34:05;4.65;;;1.92;;
48268;SDS011;34088;52.232;5.196;2023-06-14T13:36:31;4.65;;;1.92;;
48268;SDS011;34088;52.232;5.196;2023-06-14T13:38:57;3.78;;;1.90;;
48268;SDS011;34088;52.232;5.196;2023-06-14T13:41:25;3.53;;;1.80;;
48268;SDS011;34088;52.232;5.196;2023-06-14T13:43:56;3.70;;;2.13;;
48268;SDS011;34088;52.232;5.196;2023-06-14T13:46:22;3.55;;;1.98;;
48268;SDS011;34088;52.232;5.196;2023-06-14T13:48:48;4.38;;;1.90;;
48268;SDS011;34088;52.232;5.196;2023-06-14T13:51:14;3.90;;;2.00;;
48268;SDS011;34088;52.232;5.196;2023-06-14T13:53:42;4.15;;;2.00;;
48268;SDS011;34088;52.232;5.196;2023-06-14T13:56:08;4.22;;;2.00;;
48268;SDS011;34088;52.232;5.196;2023-06-14T13:58:35;6.80;;;2.00;;
48268;SDS011;34088;52.232;5.196;2023-06-14T14:01:01;4.35;;;2.20;;
48268;SDS011;34088;52.232;5.196;2023-06-14T14:03:27;7.03;;;2.10;;
48268;SDS011;34088;52.232;5.196;2023-06-14T14:05:53;3.60;;;2.00;;
48268;SDS011;34088;52.232;5.196;2023-06-14T14:08:19;4.25;;;2.15;;
48268;SDS011;34088;52.232;5.196;2023-06-14T14:10:45;5.07;;;1.90;;
48268;SDS011;34088;52.232;5.196;2023-06-14T14:13:11;5.25;;;1.90;;
48268;SDS011;34088;52.232;5.196;2023-06-14T14:15:37;8.02;;;1.98;;
48268;SDS011;34088;52.232;5.196;2023-06-14T14:18:03;5.05;;;1.90;;
48268;SDS011;34088;52.232;5.196;2023-06-14T14:20:30;8.18;;;2.40;;
48268;SDS011;34088;52.232;5.196;2023-06-14T14:22:57;4.60;;;2.28;;
48268;SDS011;34088;52.232;5.196;2023-06-14T14:25:23;5.20;;;1.80;;
48268;SDS011;34088;52.232;5.196;2023-06-14T14:27:48;4.78;;;2.03;;
48268;SDS011;34088;52.232;5.196;2023-06-14T14:30:15;4.85;;;2.10;;
48268;SDS011;34088;52.232;5.196;2023-06-14T14:32:42;4.85;;;1.92;;
48268;SDS011;34088;52.232;5.196;2023-06-14T14:35:09;5.28;;;2.05;;
48268;SDS011;34088;52.232;5.196;2023-06-14T14:37:35;5.63;;;2.20;;
48268;SDS011;34088;52.232;5.196;2023-06-14T14:40:02;2.85;;;1.90;;
48268;SDS011;34088;52.232;5.196;2023-06-14T14:42:28;4.15;;;2.05;;
48268;SDS011;34088;52.232;5.196;2023-06-14T14:44:54;2.88;;;1.95;;
48268;SDS011;34088;52.232;5.196;2023-06-14T14:47:20;3.53;;;1.90;;
48268;SDS011;34088;52.232;5.196;2023-06-14T14:49:46;4.93;;;1.88;;
48268;SDS011;34088;52.232;5.196;2023-06-14T14:52:12;5.38;;;1.90;;
48268;SDS011;34088;52.232;5.196;2023-06-14T14:54:38;3.58;;;1.83;;
48268;SDS011;34088;52.232;5.196;2023-06-14T14:57:05;6.18;;;1.70;;
48268;SDS011;34088;52.232;5.196;2023-06-14T14:59:31;5.07;;;1.80;;
48268;SDS011;34088;52.232;5.196;2023-06-14T15:01:57;4.20;;;1.90;;
48268;SDS011;34088;52.232;5.196;2023-06-14T15:04:23;4.00;;;1.90;;
48268;SDS011;34088;52.232;5.196;2023-06-14T15:06:49;4.97;;;2.08;;
48268;SDS011;34088;52.232;5.196;2023-06-14T15:09:15;4.30;;;1.92;;
48268;SDS011;34088;52.232;5.196;2023-06-14T15:11:41;3.20;;;1.80;;
48268;SDS011;34088;52.232;5.196;2023-06-14T15:14:09;3.88;;;2.15;;
48268;SDS011;34088;52.232;5.196;2023-06-14T15:16:35;4.20;;;1.80;;